createdAt,value
2023-03-13T00:01:14.131Z,3.60
2023-03-13T00:03:41.405Z,3.79
2023-03-13T00:06:08.833Z,3.99
2023-03-13T00:08:36.114Z,3.84
2023-03-13T00:11:04.774Z,3.40
2023-03-13T00:13:31.715Z,3.85
2023-03-13T00:16:12.901Z,3.58
2023-03-13T00:18:44.995Z,3.51
2023-03-13T00:21:12.145Z,3.19
2023-03-13T00:23:40.405Z,3.75
2023-03-13T00:26:10.003Z,3.68
2023-03-13T00:28:39.239Z,3.76
2023-03-13T00:31:19.012Z,3.45
2023-03-13T00:33:48.616Z,3.60
2023-03-13T00:36:18.720Z,3.63
2023-03-13T00:38:46.812Z,3.33
2023-03-13T00:41:25.424Z,3.64
2023-03-13T00:43:53.274Z,3.61
2023-03-13T00:46:22.961Z,3.65
2023-03-13T00:48:51.085Z,2.61
2023-03-13T00:51:19.375Z,3.55
2023-03-13T00:53:49.022Z,3.40
2023-03-13T00:56:17.992Z,3.66
2023-03-13T00:58:46.671Z,3.25
2023-03-13T01:01:29.634Z,3.33
2023-03-13T01:03:59.092Z,3.58
2023-03-13T01:06:29.459Z,3.61
2023-03-13T01:08:58.460Z,3.56
2023-03-13T01:11:31.103Z,3.30
2023-03-13T01:14:01.262Z,3.19
2023-03-13T01:16:30.407Z,3.60
2023-03-13T01:19:01.168Z,3.63
2023-03-13T01:21:28.795Z,3.14
2023-03-13T01:23:56.666Z,3.65
2023-03-13T01:26:25.000Z,3.61
2023-03-13T01:28:52.450Z,3.62
2023-03-13T01:31:20.958Z,3.64
2023-03-13T01:33:50.218Z,3.60
2023-03-13T01:36:19.105Z,3.40
2023-03-13T01:38:58.438Z,3.29
2023-03-13T01:41:27.934Z,3.41
2023-03-13T01:43:57.746Z,3.25
2023-03-13T01:46:30.581Z,3.58
2023-03-13T01:49:20.507Z,3.51
2023-03-13T01:52:10.467Z,3.50
2023-03-13T01:55:04.295Z,3.14
2023-03-13T01:57:35.743Z,3.18
2023-03-13T02:00:16.712Z,3.43
2023-03-13T02:02:49.121Z,3.50
2023-03-13T02:05:20.245Z,3.17
2023-03-13T02:08:03.319Z,3.18
2023-03-13T02:10:32.001Z,3.26
2023-03-13T02:13:02.818Z,3.35
2023-03-13T02:15:31.443Z,3.38
2023-03-13T02:18:00.268Z,3.37
2023-03-13T02:20:27.887Z,3.19
2023-03-13T02:23:07.944Z,3.29
2023-03-13T02:25:43.018Z,3.30
2023-03-13T02:28:19.736Z,2.75
2023-03-13T02:30:50.065Z,3.22
2023-03-13T02:33:20.096Z,3.15
2023-03-13T02:35:48.449Z,2.97
2023-03-13T02:38:24.110Z,2.81
2023-03-13T02:40:53.635Z,3.04
2023-03-13T02:43:28.003Z,3.14
2023-03-13T02:46:07.821Z,3.14
2023-03-13T02:48:43.866Z,2.72
2023-03-13T02:51:31.086Z,3.04
2023-03-13T02:54:06.840Z,3.21
2023-03-13T02:56:35.903Z,2.38
2023-03-13T02:59:04.488Z,2.47
2023-03-13T03:01:32.881Z,2.93
2023-03-13T03:04:00.220Z,2.98
2023-03-13T03:06:27.384Z,2.59
2023-03-13T03:08:55.593Z,2.73
2023-03-13T03:11:23.022Z,2.49
2023-03-13T03:13:56.346Z,2.40
2023-03-13T03:16:24.327Z,2.61
2023-03-13T03:18:51.347Z,2.33
2023-03-13T03:21:18.414Z,2.79
2023-03-13T03:23:45.411Z,2.78
2023-03-13T03:26:12.377Z,2.42
2023-03-13T03:28:39.571Z,2.50
2023-03-13T03:31:13.212Z,2.67
2023-03-13T03:33:42.205Z,2.56
2023-03-13T03:36:17.733Z,2.67
2023-03-13T03:38:46.213Z,2.54
2023-03-13T03:41:16.846Z,2.65
2023-03-13T03:43:44.101Z,2.51
2023-03-13T03:46:15.750Z,2.70
2023-03-13T03:48:43.229Z,2.66
2023-03-13T03:51:11.941Z,2.69
2023-03-13T03:53:41.596Z,2.38
2023-03-13T03:56:09.181Z,2.63
2023-03-13T03:58:40.822Z,2.70
2023-03-13T04:01:23.053Z,2.69
2023-03-13T04:03:50.078Z,2.55
2023-03-13T04:06:17.110Z,2.33
2023-03-13T04:08:45.660Z,2.70
2023-03-13T04:11:16.094Z,2.72
2023-03-13T04:13:48.568Z,2.28
2023-03-13T04:16:15.680Z,2.76
2023-03-13T04:18:43.601Z,2.56
2023-03-13T04:21:10.811Z,2.70
2023-03-13T04:23:43.318Z,2.57
2023-03-13T04:26:10.638Z,2.71
2023-03-13T04:28:39.323Z,2.75
2023-03-13T04:31:08.114Z,2.83
2023-03-13T04:33:58.414Z,2.78
2023-03-13T04:36:43.755Z,2.77
2023-03-13T04:39:32.966Z,2.73
2023-03-13T04:42:18.608Z,2.71
2023-03-13T04:44:58.194Z,2.60
2023-03-13T04:47:47.436Z,2.70
2023-03-13T04:50:33.036Z,2.67
2023-03-13T04:53:18.436Z,2.61
2023-03-13T04:56:17.160Z,2.61
2023-03-13T04:59:06.740Z,2.81
2023-03-13T05:01:52.433Z,2.63
2023-03-13T05:04:42.414Z,2.62
2023-03-13T05:07:32.591Z,2.53
2023-03-13T05:10:10.501Z,2.53
2023-03-13T05:12:44.871Z,2.42
2023-03-13T05:15:30.938Z,2.49
2023-03-13T05:18:24.550Z,1.89
2023-03-13T05:21:05.426Z,2.47
2023-03-13T05:23:52.719Z,2.45
2023-03-13T05:26:40.009Z,2.37
2023-03-13T05:29:25.023Z,2.22
2023-03-13T05:32:14.498Z,2.11
2023-03-13T05:34:53.301Z,2.37
2023-03-13T05:37:43.833Z,2.36
2023-03-13T05:40:33.945Z,2.37
2023-03-13T05:43:06.858Z,2.44
2023-03-13T05:45:49.465Z,2.43
2023-03-13T05:48:31.657Z,2.46
2023-03-13T05:51:04.888Z,2.10
2023-03-13T05:53:48.579Z,2.20
2023-03-13T05:56:45.186Z,2.36
2023-03-13T05:59:33.652Z,2.01
2023-03-13T06:02:24.033Z,2.32
2023-03-13T06:04:51.561Z,2.34
2023-03-13T06:07:18.824Z,2.34
2023-03-13T06:09:45.921Z,2.09
2023-03-13T06:12:14.168Z,2.39
2023-03-13T06:14:41.236Z,2.31
2023-03-13T06:17:25.712Z,1.98
2023-03-13T06:19:52.653Z,2.04
2023-03-13T06:22:19.801Z,2.00
2023-03-13T06:24:49.699Z,2.01
2023-03-13T06:27:17.667Z,1.85
2023-03-13T06:29:44.645Z,1.83
2023-03-13T06:32:11.761Z,1.96
2023-03-13T06:34:38.996Z,2.17
2023-03-13T06:37:06.139Z,2.20
2023-03-13T06:39:33.245Z,2.27
2023-03-13T06:42:00.225Z,1.81
2023-03-13T06:44:27.423Z,1.91
2023-03-13T06:46:54.570Z,1.82
2023-03-13T06:49:21.623Z,1.99
2023-03-13T06:51:48.560Z,2.09
2023-03-13T06:54:15.679Z,1.82
2023-03-13T06:56:42.848Z,2.03
2023-03-13T06:59:10.936Z,2.23
2023-03-13T07:01:37.870Z,2.12
2023-03-13T07:04:04.986Z,2.35
2023-03-13T07:06:32.100Z,2.07
2023-03-13T07:08:59.137Z,2.28
2023-03-13T07:11:26.167Z,2.26
2023-03-13T07:14:06.567Z,2.36
2023-03-13T07:16:42.127Z,2.32
2023-03-13T07:19:09.204Z,1.98
2023-03-13T07:21:36.404Z,2.37
2023-03-13T07:24:04.202Z,2.17
2023-03-13T07:26:31.328Z,2.06
2023-03-13T07:28:58.329Z,2.62
2023-03-13T07:31:25.501Z,2.67
2023-03-13T07:33:56.675Z,2.72
2023-03-13T07:36:31.136Z,2.71
2023-03-13T07:38:58.190Z,2.72
2023-03-13T07:41:25.188Z,2.89
2023-03-13T07:43:52.346Z,2.77
2023-03-13T07:46:20.505Z,2.66
2023-03-13T07:48:51.393Z,2.76
2023-03-13T07:51:36.892Z,2.94
2023-03-13T07:54:09.418Z,2.77
2023-03-13T07:56:36.452Z,2.97
2023-03-13T07:59:03.637Z,3.17
2023-03-13T08:01:31.401Z,3.27
2023-03-13T08:04:01.377Z,2.94
2023-03-13T08:06:33.765Z,3.27
2023-03-13T08:09:01.675Z,3.53
2023-03-13T08:11:29.422Z,3.65
2023-03-13T08:13:58.675Z,3.76
2023-03-13T08:16:28.496Z,3.88
2023-03-13T08:18:57.717Z,4.09
2023-03-13T08:21:30.439Z,4.09
2023-03-13T08:23:59.830Z,3.59
2023-03-13T08:26:29.379Z,3.82
2023-03-13T08:29:01.547Z,3.01
2023-03-13T08:31:42.527Z,3.92
2023-03-13T08:34:11.517Z,4.14
2023-03-13T08:36:39.775Z,4.37
2023-03-13T08:39:15.451Z,4.55
2023-03-13T08:41:42.573Z,4.55
2023-03-13T08:44:15.257Z,4.74
2023-03-13T08:46:42.602Z,4.57
2023-03-13T08:49:10.860Z,4.91
2023-03-13T08:51:38.357Z,4.90
2023-03-13T08:54:05.656Z,5.10
2023-03-13T08:56:33.620Z,5.01
2023-03-13T08:59:02.686Z,5.43
2023-03-13T09:01:32.139Z,5.28
2023-03-13T09:04:03.651Z,5.72
2023-03-13T09:06:32.322Z,5.46
2023-03-13T09:08:59.479Z,5.87
2023-03-13T09:11:27.404Z,5.57
2023-03-13T09:13:56.266Z,5.99
2023-03-13T09:16:25.638Z,6.01
2023-03-13T09:18:56.200Z,6.17
2023-03-13T09:21:25.780Z,6.45
2023-03-13T09:23:53.367Z,5.96
2023-03-13T09:26:23.318Z,6.51
2023-03-13T09:28:52.543Z,6.00
2023-03-13T09:31:26.255Z,6.46
2023-03-13T09:33:53.987Z,6.09
2023-03-13T09:36:22.912Z,6.00
2023-03-13T09:38:56.395Z,6.31
2023-03-13T09:41:40.706Z,6.28
2023-03-13T09:44:22.992Z,6.40
2023-03-13T09:47:06.299Z,6.34
2023-03-13T09:50:11.708Z,6.46
2023-03-13T09:52:41.227Z,6.49
2023-03-13T09:55:22.312Z,6.45
2023-03-13T09:58:20.057Z,6.36
2023-03-13T10:00:54.053Z,6.14
2023-03-13T10:03:27.465Z,6.36
2023-03-13T10:05:59.664Z,6.42
2023-03-13T10:08:30.754Z,6.54
2023-03-13T10:11:08.427Z,6.66
2023-03-13T10:13:47.853Z,6.70
2023-03-13T10:16:27.199Z,6.40
2023-03-13T10:18:58.449Z,6.89
2023-03-13T10:21:32.954Z,6.95
2023-03-13T10:24:03.961Z,7.16
2023-03-13T10:26:34.957Z,7.21
2023-03-13T10:29:23.860Z,7.23
2023-03-13T10:32:02.412Z,7.28
2023-03-13T10:35:00.578Z,7.21
2023-03-13T10:37:33.560Z,7.45
2023-03-13T10:40:13.163Z,7.66
2023-03-13T10:42:45.998Z,7.66
2023-03-13T10:45:37.310Z,7.79
2023-03-13T10:48:25.711Z,7.95
2023-03-13T10:50:57.755Z,8.09
2023-03-13T10:53:36.855Z,8.15
2023-03-13T10:56:13.882Z,7.91
2023-03-13T10:58:40.964Z,8.31
2023-03-13T11:01:10.842Z,8.40
2023-03-13T11:03:37.900Z,8.44
2023-03-13T11:06:05.106Z,8.60
2023-03-13T11:08:37.223Z,8.76
2023-03-13T11:11:19.172Z,8.50
2023-03-13T11:13:47.170Z,8.49
2023-03-13T11:16:21.002Z,9.03
2023-03-13T11:19:13.353Z,9.10
2023-03-13T11:22:16.527Z,9.24
2023-03-13T11:24:46.821Z,8.75
2023-03-13T11:27:43.055Z,9.14
2023-03-13T11:30:23.102Z,9.21
2023-03-13T11:33:05.345Z,8.90
2023-03-13T11:35:44.571Z,9.63
2023-03-13T11:38:23.912Z,8.48
2023-03-13T11:41:11.183Z,9.52
2023-03-13T11:43:57.105Z,9.87
2023-03-13T11:46:27.461Z,9.87
2023-03-13T11:49:00.717Z,9.91
2023-03-13T11:51:33.479Z,9.94
2023-03-13T11:54:23.312Z,9.98
2023-03-13T11:56:57.862Z,9.69
2023-03-13T11:59:31.006Z,10.10
2023-03-13T12:02:05.752Z,9.39
2023-03-13T12:04:43.949Z,9.94
2023-03-13T12:07:39.715Z,9.62
2023-03-13T12:10:15.826Z,9.89
2023-03-13T12:12:49.728Z,9.99
2023-03-13T12:15:28.473Z,9.96
2023-03-13T12:18:00.331Z,9.70
2023-03-13T12:20:33.738Z,10.14
2023-03-13T12:23:06.695Z,10.11
2023-03-13T12:25:43.675Z,10.11
2023-03-13T12:28:42.040Z,10.24
2023-03-13T12:31:18.317Z,10.35
2023-03-13T12:34:03.606Z,10.10
2023-03-13T12:37:12.617Z,10.51
2023-03-13T12:39:47.947Z,10.59
2023-03-13T12:42:33.918Z,10.58
2023-03-13T12:45:01.181Z,10.18
2023-03-13T12:47:36.752Z,10.57
2023-03-13T12:50:25.096Z,10.70
2023-03-13T12:53:04.246Z,10.79
2023-03-13T12:55:58.541Z,10.82
2023-03-13T12:58:30.957Z,10.82
2023-03-13T13:01:04.403Z,10.04
2023-03-13T13:03:40.276Z,10.23
2023-03-13T13:06:13.820Z,10.33
2023-03-13T13:08:44.364Z,10.33
2023-03-13T13:11:38.565Z,10.76
2023-03-13T13:14:17.810Z,10.69
2023-03-13T13:17:16.728Z,10.55
2023-03-13T13:19:46.668Z,10.02
2023-03-13T13:22:38.881Z,10.75
2023-03-13T13:25:11.938Z,10.70
2023-03-13T13:27:38.858Z,10.82
2023-03-13T13:30:31.889Z,10.85
2023-03-13T13:33:28.364Z,10.81
2023-03-13T13:36:10.859Z,10.69
2023-03-13T13:38:44.120Z,10.39
2023-03-13T13:41:11.060Z,10.54
2023-03-13T13:43:38.915Z,10.39
2023-03-13T13:46:10.875Z,10.60
2023-03-13T13:48:40.128Z,9.56
2023-03-13T13:51:14.322Z,10.72
2023-03-13T13:53:56.460Z,10.24
2023-03-13T13:56:29.595Z,10.98
2023-03-13T13:59:21.571Z,11.09
2023-03-13T14:01:50.734Z,10.94
2023-03-13T14:04:38.141Z,11.24
2023-03-13T14:07:06.737Z,11.34
2023-03-13T14:09:43.273Z,11.37
2023-03-13T14:12:31.959Z,11.54
2023-03-13T14:15:21.826Z,11.10
2023-03-13T14:18:01.452Z,11.18
2023-03-13T14:20:35.010Z,11.78
2023-03-13T14:23:08.493Z,11.70
2023-03-13T14:25:50.269Z,11.96
2023-03-13T14:28:26.047Z,11.72
2023-03-13T14:30:56.962Z,11.73
2023-03-13T14:33:27.919Z,12.19
2023-03-13T14:35:55.766Z,11.97
2023-03-13T14:38:30.119Z,12.17
2023-03-13T14:40:57.275Z,11.96
2023-03-13T14:43:40.447Z,12.15
2023-03-13T14:46:34.177Z,11.92
2023-03-13T14:49:21.668Z,11.86
2023-03-13T14:52:08.893Z,11.69
2023-03-13T14:54:42.294Z,11.24
2023-03-13T14:57:16.540Z,11.44
2023-03-13T14:59:44.314Z,11.46
2023-03-13T15:02:15.671Z,11.38
2023-03-13T15:05:31.232Z,11.31
2023-03-13T15:08:01.654Z,9.67
2023-03-13T15:10:37.001Z,10.76
2023-03-13T15:13:29.634Z,10.92
2023-03-13T15:15:57.202Z,10.45
2023-03-13T15:18:25.623Z,10.37
2023-03-13T15:20:58.779Z,10.15
2023-03-13T15:23:26.420Z,10.26
2023-03-13T15:25:53.652Z,9.75
2023-03-13T15:28:23.926Z,8.77
2023-03-13T15:30:52.684Z,7.26
2023-03-13T15:33:22.242Z,9.95
2023-03-13T15:35:53.393Z,9.69
2023-03-13T15:38:24.497Z,9.68
2023-03-13T15:40:52.410Z,9.91
2023-03-13T15:43:20.989Z,9.48
2023-03-13T15:45:52.347Z,9.77
2023-03-13T15:48:23.867Z,9.77
2023-03-13T15:50:55.503Z,9.75
2023-03-13T15:53:25.995Z,8.68
2023-03-13T15:55:55.040Z,9.63
2023-03-13T15:58:22.583Z,9.18
2023-03-13T16:00:49.912Z,9.02
2023-03-13T16:03:25.623Z,9.55
2023-03-13T16:05:54.669Z,9.59
2023-03-13T16:08:34.806Z,9.53
2023-03-13T16:11:03.374Z,9.35
2023-03-13T16:13:33.572Z,9.47
2023-03-13T16:16:00.652Z,9.30
2023-03-13T16:18:27.852Z,9.28
2023-03-13T16:20:54.921Z,9.13
2023-03-13T16:23:21.877Z,9.10
2023-03-13T16:25:49.510Z,8.25
2023-03-13T16:28:16.703Z,8.31
2023-03-13T16:30:44.075Z,7.93
2023-03-13T16:33:11.676Z,8.57
2023-03-13T16:35:39.591Z,8.40
2023-03-13T16:38:08.779Z,8.11
2023-03-13T16:40:36.312Z,8.28
2023-03-13T16:43:03.821Z,8.61
2023-03-13T16:45:31.045Z,8.11
2023-03-13T16:47:58.181Z,8.02
2023-03-13T16:50:37.498Z,8.26
2023-03-13T16:53:04.843Z,7.70
2023-03-13T16:55:36.859Z,7.77
2023-03-13T16:58:04.534Z,7.58
2023-03-13T17:00:32.492Z,7.58
2023-03-13T17:03:01.466Z,7.85
2023-03-13T17:05:28.889Z,7.56
2023-03-13T17:07:55.971Z,6.67
2023-03-13T17:10:31.370Z,7.42
2023-03-13T17:12:58.815Z,7.16
2023-03-13T17:15:27.293Z,7.23
2023-03-13T17:17:55.006Z,6.67
2023-03-13T17:20:27.634Z,7.03
2023-03-13T17:22:56.443Z,6.43
2023-03-13T17:25:24.424Z,5.73
2023-03-13T17:27:51.715Z,6.81
2023-03-13T17:30:28.044Z,6.87
2023-03-13T17:32:55.253Z,5.81
2023-03-13T17:35:24.296Z,6.44
2023-03-13T17:37:51.995Z,6.36
2023-03-13T17:40:28.366Z,6.30
2023-03-13T17:42:56.518Z,6.56
2023-03-13T17:45:25.564Z,5.81
2023-03-13T17:47:54.443Z,5.83
2023-03-13T17:50:26.548Z,5.99
2023-03-13T17:52:54.328Z,5.47
2023-03-13T17:55:21.747Z,5.07
2023-03-13T17:57:49.681Z,5.21
2023-03-13T18:00:26.214Z,4.80
2023-03-13T18:02:53.407Z,4.97
2023-03-13T18:05:20.659Z,4.96
2023-03-13T18:07:49.280Z,5.22
2023-03-13T18:10:17.456Z,4.98
2023-03-13T18:12:44.619Z,4.62
2023-03-13T18:15:12.445Z,5.15
2023-03-13T18:17:39.818Z,4.81
2023-03-13T18:20:16.688Z,4.98
2023-03-13T18:22:43.934Z,5.27
2023-03-13T18:25:11.950Z,4.38
2023-03-13T18:27:39.702Z,5.27
2023-03-13T18:30:14.866Z,4.70
2023-03-13T18:32:42.232Z,4.82
2023-03-13T18:35:09.636Z,4.84
2023-03-13T18:37:36.884Z,4.67
2023-03-13T18:40:07.719Z,4.00
2023-03-13T18:42:34.872Z,4.55
2023-03-13T18:45:02.040Z,4.79
2023-03-13T18:47:29.265Z,4.58
2023-03-13T18:49:56.303Z,4.97
2023-03-13T18:52:23.391Z,4.38
2023-03-13T18:54:50.523Z,4.75
2023-03-13T18:57:20.094Z,4.57
2023-03-13T18:59:47.261Z,4.47
2023-03-13T19:02:18.992Z,4.49
2023-03-13T19:04:47.326Z,4.51
2023-03-13T19:07:26.778Z,4.62
2023-03-13T19:09:54.663Z,4.86
2023-03-13T19:12:21.688Z,4.45
2023-03-13T19:14:48.781Z,4.64
2023-03-13T19:17:29.667Z,4.32
2023-03-13T19:19:59.736Z,4.63
2023-03-13T19:22:26.842Z,4.12
2023-03-13T19:24:53.947Z,3.84
2023-03-13T19:27:23.918Z,3.90
2023-03-13T19:29:51.204Z,4.28
2023-03-13T19:32:19.346Z,4.56
2023-03-13T19:34:47.164Z,4.03
2023-03-13T19:37:15.623Z,3.95
2023-03-13T19:39:42.993Z,4.47
2023-03-13T19:42:10.067Z,4.27
2023-03-13T19:44:43.055Z,4.10
2023-03-13T19:47:15.762Z,4.26
2023-03-13T19:49:43.145Z,3.99
2023-03-13T19:52:10.486Z,4.44
2023-03-13T19:54:37.524Z,4.34
2023-03-13T19:57:04.653Z,4.30
2023-03-13T19:59:35.321Z,3.49
2023-03-13T20:02:04.438Z,3.81
2023-03-13T20:04:31.603Z,3.95
2023-03-13T20:06:59.211Z,3.81
2023-03-13T20:09:26.225Z,2.07
2023-03-13T20:11:53.460Z,3.48
2023-03-13T20:14:20.670Z,2.87
2023-03-13T20:16:49.331Z,2.99
2023-03-13T20:19:16.488Z,3.78
2023-03-13T20:21:43.818Z,3.15
2023-03-13T20:24:11.220Z,3.84
2023-03-13T20:26:38.379Z,3.33
2023-03-13T20:29:05.715Z,3.69
2023-03-13T20:31:33.054Z,3.86
2023-03-13T20:34:00.776Z,3.49
2023-03-13T20:36:28.390Z,3.77
2023-03-13T20:38:56.157Z,3.44
2023-03-13T20:41:25.930Z,3.67
2023-03-13T20:43:53.677Z,3.99
2023-03-13T20:46:21.874Z,4.02
2023-03-13T20:48:49.185Z,3.55
2023-03-13T20:51:16.389Z,4.03
2023-03-13T20:53:43.645Z,4.03
2023-03-13T20:56:11.919Z,3.78
2023-03-13T20:58:39.573Z,3.66
2023-03-13T21:01:07.844Z,3.64
2023-03-13T21:03:36.176Z,3.86
2023-03-13T21:06:18.115Z,4.00
2023-03-13T21:08:46.641Z,4.09
2023-03-13T21:11:16.266Z,3.49
2023-03-13T21:13:43.523Z,3.39
2023-03-13T21:16:11.410Z,4.00
2023-03-13T21:18:38.417Z,3.89
2023-03-13T21:21:07.648Z,3.46
2023-03-13T21:23:35.013Z,3.94
2023-03-13T21:26:02.002Z,3.86
2023-03-13T21:28:29.682Z,3.93
2023-03-13T21:30:57.033Z,3.67
2023-03-13T21:33:24.702Z,3.82
2023-03-13T21:35:51.966Z,3.40
2023-03-13T21:38:19.014Z,3.53
2023-03-13T21:40:46.175Z,3.90
2023-03-13T21:43:13.236Z,3.44
2023-03-13T21:45:40.285Z,3.84
2023-03-13T21:48:07.343Z,3.77
2023-03-13T21:50:34.501Z,3.36
2023-03-13T21:53:01.514Z,3.52
2023-03-13T21:55:28.629Z,3.08
2023-03-13T21:57:55.664Z,3.79
2023-03-13T22:00:23.098Z,3.27
2023-03-13T22:02:52.004Z,3.72
2023-03-13T22:05:19.237Z,3.54
2023-03-13T22:07:46.422Z,3.52
2023-03-13T22:10:13.480Z,3.08
2023-03-13T22:12:40.654Z,3.60
2023-03-13T22:15:11.610Z,3.55
2023-03-13T22:17:38.612Z,3.60
2023-03-13T22:20:06.601Z,3.48
2023-03-13T22:22:33.695Z,3.44
2023-03-13T22:25:00.901Z,3.23
2023-03-13T22:27:27.975Z,3.56
2023-03-13T22:29:55.313Z,3.58
2023-03-13T22:32:22.420Z,3.72
2023-03-13T22:34:49.651Z,3.44
2023-03-13T22:37:16.706Z,3.47
2023-03-13T22:39:43.650Z,3.17
2023-03-13T22:42:10.675Z,3.54
2023-03-13T22:44:37.710Z,3.52
2023-03-13T22:47:04.712Z,3.52
2023-03-13T22:49:31.828Z,3.39
2023-03-13T22:51:59.590Z,3.47
2023-03-13T22:54:26.671Z,3.43
2023-03-13T22:56:53.875Z,3.47
2023-03-13T22:59:21.000Z,2.83
2023-03-13T23:01:48.297Z,3.50
2023-03-13T23:04:15.842Z,3.26
2023-03-13T23:06:43.678Z,3.02
2023-03-13T23:09:11.028Z,3.03
2023-03-13T23:11:38.335Z,3.04
2023-03-13T23:14:05.390Z,3.04
2023-03-13T23:16:32.827Z,3.24
2023-03-13T23:18:59.954Z,3.13
2023-03-13T23:21:27.024Z,3.12
2023-03-13T23:23:54.779Z,3.21
2023-03-13T23:26:22.060Z,3.06
2023-03-13T23:28:49.321Z,3.01
2023-03-13T23:31:19.528Z,3.04
2023-03-13T23:33:47.641Z,3.01
2023-03-13T23:36:17.737Z,2.91
2023-03-13T23:38:48.688Z,3.03
2023-03-13T23:41:15.769Z,2.92
2023-03-13T23:43:43.174Z,2.67
2023-03-13T23:46:28.494Z,2.98
2023-03-13T23:48:57.477Z,2.86
2023-03-13T23:51:25.960Z,2.88
2023-03-13T23:53:52.994Z,2.60
2023-03-13T23:56:20.287Z,2.79
2023-03-13T23:58:47.376Z,2.80
